sensor_id;sensor_type;location;lat;lon;timestamp;P1;durP1;ratioP1;P2;durP2;ratioP2
41653;SDS011;68687;52.030;7.110;2023-06-22T00:00:56;24.70;;;18.15;;
41653;SDS011;68687;52.030;7.110;2023-06-22T00:03:23;23.10;;;17.48;;
41653;SDS011;68687;52.030;7.110;2023-06-22T00:05:50;23.27;;;18.63;;
41653;SDS011;68687;52.030;7.110;2023-06-22T00:08:16;22.58;;;18.60;;
41653;SDS011;68687;52.030;7.110;2023-06-22T00:10:42;26.58;;;19.17;;
41653;SDS011;68687;52.030;7.110;2023-06-22T00:13:08;24.58;;;18.27;;
41653;SDS011;68687;52.030;7.110;2023-06-22T00:15:34;24.65;;;17.98;;
41653;SDS011;68687;52.030;7.110;2023-06-22T00:18:00;21.85;;;18.58;;
41653;SDS011;68687;52.030;7.110;2023-06-22T00:20:27;22.40;;;17.95;;
41653;SDS011;68687;52.030;7.110;2023-06-22T00:23:10;24.35;;;17.98;;
41653;SDS011;68687;52.030;7.110;2023-06-22T00:25:38;29.10;;;18.25;;
41653;SDS011;68687;52.030;7.110;2023-06-22T00:28:09;24.40;;;19.02;;
41653;SDS011;68687;52.030;7.110;2023-06-22T00:30:35;25.95;;;17.90;;
41653;SDS011;68687;52.030;7.110;2023-06-22T00:33:00;22.08;;;17.13;;
41653;SDS011;68687;52.030;7.110;2023-06-22T00:35:28;21.77;;;17.65;;
41653;SDS011;68687;52.030;7.110;2023-06-22T00:37:57;22.13;;;17.50;;
41653;SDS011;68687;52.030;7.110;2023-06-22T00:40:25;21.90;;;18.30;;
41653;SDS011;68687;52.030;7.110;2023-06-22T00:42:57;21.73;;;18.20;;
41653;SDS011;68687;52.030;7.110;2023-06-22T00:45:23;24.90;;;18.60;;
41653;SDS011;68687;52.030;7.110;2023-06-22T00:47:52;24.83;;;18.70;;
41653;SDS011;68687;52.030;7.110;2023-06-22T00:50:20;23.27;;;19.00;;
41653;SDS011;68687;52.030;7.110;2023-06-22T00:52:51;22.90;;;19.02;;
41653;SDS011;68687;52.030;7.110;2023-06-22T00:55:18;22.88;;;18.55;;
41653;SDS011;68687;52.030;7.110;2023-06-22T00:57:47;26.50;;;19.20;;
41653;SDS011;68687;52.030;7.110;2023-06-22T01:00:13;21.58;;;17.95;;
41653;SDS011;68687;52.030;7.110;2023-06-22T01:02:41;26.77;;;18.27;;
41653;SDS011;68687;52.030;7.110;2023-06-22T01:05:06;23.33;;;19.20;;
41653;SDS011;68687;52.030;7.110;2023-06-22T01:07:35;23.92;;;19.58;;
41653;SDS011;68687;52.030;7.110;2023-06-22T01:12:51;27.85;;;20.17;;
41653;SDS011;68687;52.030;7.110;2023-06-22T01:15:28;26.52;;;21.08;;
41653;SDS011;68687;52.030;7.110;2023-06-22T01:18:03;23.65;;;20.30;;
41653;SDS011;68687;52.030;7.110;2023-06-22T01:20:29;28.00;;;21.00;;
41653;SDS011;68687;52.030;7.110;2023-06-22T01:22:59;25.27;;;19.23;;
41653;SDS011;68687;52.030;7.110;2023-06-22T01:25:33;30.52;;;21.55;;
41653;SDS011;68687;52.030;7.110;2023-06-22T01:28:18;26.10;;;21.48;;
41653;SDS011;68687;52.030;7.110;2023-06-22T01:30:50;25.88;;;21.60;;
41653;SDS011;68687;52.030;7.110;2023-06-22T01:33:28;30.63;;;22.58;;
41653;SDS011;68687;52.030;7.110;2023-06-22T01:35:55;26.70;;;22.05;;
41653;SDS011;68687;52.030;7.110;2023-06-22T01:38:21;33.63;;;23.45;;
41653;SDS011;68687;52.030;7.110;2023-06-22T01:40:47;27.80;;;22.52;;
41653;SDS011;68687;52.030;7.110;2023-06-22T01:43:14;30.52;;;22.23;;
41653;SDS011;68687;52.030;7.110;2023-06-22T01:45:45;26.60;;;21.27;;
41653;SDS011;68687;52.030;7.110;2023-06-22T01:48:11;28.33;;;21.88;;
41653;SDS011;68687;52.030;7.110;2023-06-22T01:50:36;30.58;;;22.80;;
41653;SDS011;68687;52.030;7.110;2023-06-22T01:53:02;32.45;;;22.15;;
41653;SDS011;68687;52.030;7.110;2023-06-22T01:55:27;26.23;;;21.88;;
41653;SDS011;68687;52.030;7.110;2023-06-22T01:57:52;28.63;;;21.65;;
41653;SDS011;68687;52.030;7.110;2023-06-22T02:00:24;31.95;;;22.52;;
41653;SDS011;68687;52.030;7.110;2023-06-22T02:03:00;30.73;;;22.35;;
41653;SDS011;68687;52.030;7.110;2023-06-22T02:05:31;25.58;;;21.90;;
41653;SDS011;68687;52.030;7.110;2023-06-22T02:08:15;29.80;;;22.27;;
41653;SDS011;68687;52.030;7.110;2023-06-22T02:10:45;31.83;;;23.35;;
41653;SDS011;68687;52.030;7.110;2023-06-22T02:13:12;29.98;;;22.80;;
41653;SDS011;68687;52.030;7.110;2023-06-22T02:15:45;33.17;;;23.05;;
41653;SDS011;68687;52.030;7.110;2023-06-22T02:18:14;30.52;;;22.05;;
41653;SDS011;68687;52.030;7.110;2023-06-22T02:20:40;27.08;;;21.27;;
41653;SDS011;68687;52.030;7.110;2023-06-22T02:23:06;31.55;;;22.45;;
41653;SDS011;68687;52.030;7.110;2023-06-22T02:25:32;27.27;;;20.98;;
41653;SDS011;68687;52.030;7.110;2023-06-22T02:27:58;29.98;;;21.73;;
41653;SDS011;68687;52.030;7.110;2023-06-22T02:30:23;31.15;;;23.17;;
41653;SDS011;68687;52.030;7.110;2023-06-22T02:32:49;32.10;;;23.02;;
41653;SDS011;68687;52.030;7.110;2023-06-22T02:35:14;31.00;;;24.10;;
41653;SDS011;68687;52.030;7.110;2023-06-22T02:37:40;32.35;;;23.70;;
41653;SDS011;68687;52.030;7.110;2023-06-22T02:40:07;27.83;;;22.75;;
41653;SDS011;68687;52.030;7.110;2023-06-22T02:42:36;31.67;;;24.13;;
41653;SDS011;68687;52.030;7.110;2023-06-22T02:45:02;28.77;;;23.60;;
41653;SDS011;68687;52.030;7.110;2023-06-22T02:47:27;29.60;;;22.90;;
41653;SDS011;68687;52.030;7.110;2023-06-22T02:49:53;34.58;;;24.65;;
41653;SDS011;68687;52.030;7.110;2023-06-22T02:52:18;35.22;;;24.45;;
41653;SDS011;68687;52.030;7.110;2023-06-22T02:54:43;33.85;;;23.58;;
41653;SDS011;68687;52.030;7.110;2023-06-22T02:57:11;32.72;;;23.33;;
41653;SDS011;68687;52.030;7.110;2023-06-22T02:59:38;32.83;;;24.98;;
41653;SDS011;68687;52.030;7.110;2023-06-22T03:02:07;31.25;;;23.67;;
41653;SDS011;68687;52.030;7.110;2023-06-22T03:04:34;28.77;;;23.73;;
41653;SDS011;68687;52.030;7.110;2023-06-22T03:07:02;30.60;;;23.42;;
41653;SDS011;68687;52.030;7.110;2023-06-22T03:09:28;32.80;;;24.40;;
41653;SDS011;68687;52.030;7.110;2023-06-22T03:11:54;30.70;;;23.95;;
41653;SDS011;68687;52.030;7.110;2023-06-22T03:14:19;35.45;;;25.25;;
41653;SDS011;68687;52.030;7.110;2023-06-22T03:16:48;35.35;;;25.38;;
41653;SDS011;68687;52.030;7.110;2023-06-22T03:19:13;32.20;;;25.55;;
41653;SDS011;68687;52.030;7.110;2023-06-22T03:21:39;35.10;;;24.92;;
41653;SDS011;68687;52.030;7.110;2023-06-22T03:24:05;34.95;;;25.23;;
41653;SDS011;68687;52.030;7.110;2023-06-22T03:26:31;30.55;;;23.25;;
41653;SDS011;68687;52.030;7.110;2023-06-22T03:28:56;35.10;;;25.70;;
41653;SDS011;68687;52.030;7.110;2023-06-22T03:31:22;33.67;;;26.17;;
41653;SDS011;68687;52.030;7.110;2023-06-22T03:33:51;29.20;;;23.20;;
41653;SDS011;68687;52.030;7.110;2023-06-22T03:36:19;37.50;;;23.70;;
41653;SDS011;68687;52.030;7.110;2023-06-22T03:38:45;36.45;;;25.33;;
41653;SDS011;68687;52.030;7.110;2023-06-22T03:41:11;35.50;;;24.55;;
41653;SDS011;68687;52.030;7.110;2023-06-22T03:43:36;33.58;;;24.88;;
41653;SDS011;68687;52.030;7.110;2023-06-22T03:46:02;32.88;;;23.90;;
41653;SDS011;68687;52.030;7.110;2023-06-22T03:48:27;30.45;;;23.58;;
41653;SDS011;68687;52.030;7.110;2023-06-22T03:50:52;29.52;;;22.73;;
41653;SDS011;68687;52.030;7.110;2023-06-22T03:53:18;30.58;;;23.65;;
41653;SDS011;68687;52.030;7.110;2023-06-22T03:55:52;34.22;;;25.13;;
41653;SDS011;68687;52.030;7.110;2023-06-22T03:58:18;32.53;;;24.73;;
41653;SDS011;68687;52.030;7.110;2023-06-22T04:00:52;36.60;;;25.77;;
41653;SDS011;68687;52.030;7.110;2023-06-22T04:03:18;39.90;;;26.23;;
41653;SDS011;68687;52.030;7.110;2023-06-22T04:05:44;33.67;;;24.77;;
41653;SDS011;68687;52.030;7.110;2023-06-22T04:08:13;37.97;;;25.15;;
41653;SDS011;68687;52.030;7.110;2023-06-22T04:10:39;39.97;;;26.23;;
41653;SDS011;68687;52.030;7.110;2023-06-22T04:13:04;41.10;;;27.48;;
41653;SDS011;68687;52.030;7.110;2023-06-22T04:15:42;33.47;;;26.48;;
41653;SDS011;68687;52.030;7.110;2023-06-22T04:18:10;39.05;;;26.25;;
41653;SDS011;68687;52.030;7.110;2023-06-22T04:20:35;38.25;;;25.80;;
41653;SDS011;68687;52.030;7.110;2023-06-22T04:23:04;35.30;;;24.65;;
41653;SDS011;68687;52.030;7.110;2023-06-22T04:25:29;36.15;;;25.90;;
41653;SDS011;68687;52.030;7.110;2023-06-22T04:27:55;37.28;;;25.88;;
41653;SDS011;68687;52.030;7.110;2023-06-22T04:30:26;38.33;;;25.85;;
41653;SDS011;68687;52.030;7.110;2023-06-22T04:32:51;38.53;;;27.45;;
41653;SDS011;68687;52.030;7.110;2023-06-22T04:35:23;38.80;;;26.98;;
41653;SDS011;68687;52.030;7.110;2023-06-22T04:37:49;36.45;;;26.52;;
41653;SDS011;68687;52.030;7.110;2023-06-22T04:40:15;33.55;;;25.52;;
41653;SDS011;68687;52.030;7.110;2023-06-22T04:42:40;36.03;;;23.83;;
41653;SDS011;68687;52.030;7.110;2023-06-22T04:45:17;38.03;;;25.65;;
41653;SDS011;68687;52.030;7.110;2023-06-22T04:47:43;32.38;;;25.23;;
41653;SDS011;68687;52.030;7.110;2023-06-22T04:50:10;33.60;;;25.23;;
41653;SDS011;68687;52.030;7.110;2023-06-22T04:52:36;39.83;;;24.92;;
41653;SDS011;68687;52.030;7.110;2023-06-22T04:55:08;37.08;;;25.45;;
41653;SDS011;68687;52.030;7.110;2023-06-22T04:57:33;36.28;;;25.88;;
41653;SDS011;68687;52.030;7.110;2023-06-22T04:59:59;35.35;;;25.70;;
41653;SDS011;68687;52.030;7.110;2023-06-22T05:02:38;33.78;;;25.63;;
41653;SDS011;68687;52.030;7.110;2023-06-22T05:05:04;33.05;;;25.40;;
41653;SDS011;68687;52.030;7.110;2023-06-22T05:07:35;42.20;;;27.70;;
41653;SDS011;68687;52.030;7.110;2023-06-22T05:10:01;33.85;;;25.48;;
41653;SDS011;68687;52.030;7.110;2023-06-22T05:12:33;35.80;;;26.27;;
41653;SDS011;68687;52.030;7.110;2023-06-22T05:14:59;34.15;;;25.50;;
41653;SDS011;68687;52.030;7.110;2023-06-22T05:17:26;36.03;;;26.58;;
41653;SDS011;68687;52.030;7.110;2023-06-22T05:19:51;32.38;;;25.90;;
41653;SDS011;68687;52.030;7.110;2023-06-22T05:22:20;32.17;;;24.95;;
41653;SDS011;68687;52.030;7.110;2023-06-22T05:24:45;33.83;;;25.52;;
41653;SDS011;68687;52.030;7.110;2023-06-22T05:27:14;36.55;;;27.33;;
41653;SDS011;68687;52.030;7.110;2023-06-22T05:29:39;32.10;;;23.85;;
41653;SDS011;68687;52.030;7.110;2023-06-22T05:32:05;35.35;;;23.67;;
41653;SDS011;68687;52.030;7.110;2023-06-22T05:34:31;37.10;;;26.10;;
41653;SDS011;68687;52.030;7.110;2023-06-22T05:36:56;29.65;;;23.02;;
41653;SDS011;68687;52.030;7.110;2023-06-22T05:39:30;32.40;;;25.60;;
41653;SDS011;68687;52.030;7.110;2023-06-22T05:41:55;36.70;;;25.30;;
41653;SDS011;68687;52.030;7.110;2023-06-22T05:44:20;35.92;;;24.65;;
41653;SDS011;68687;52.030;7.110;2023-06-22T05:46:51;32.72;;;24.10;;
41653;SDS011;68687;52.030;7.110;2023-06-22T05:49:17;29.33;;;22.15;;
41653;SDS011;68687;52.030;7.110;2023-06-22T05:51:42;32.97;;;23.33;;
41653;SDS011;68687;52.030;7.110;2023-06-22T05:54:10;29.20;;;23.77;;
41653;SDS011;68687;52.030;7.110;2023-06-22T05:56:38;32.35;;;23.38;;
41653;SDS011;68687;52.030;7.110;2023-06-22T05:59:03;35.22;;;23.52;;
41653;SDS011;68687;52.030;7.110;2023-06-22T06:01:29;30.75;;;22.80;;
41653;SDS011;68687;52.030;7.110;2023-06-22T06:03:56;28.40;;;22.02;;
41653;SDS011;68687;52.030;7.110;2023-06-22T06:06:21;30.85;;;22.23;;
41653;SDS011;68687;52.030;7.110;2023-06-22T06:08:47;30.42;;;22.52;;
41653;SDS011;68687;52.030;7.110;2023-06-22T06:11:12;26.98;;;21.13;;
41653;SDS011;68687;52.030;7.110;2023-06-22T06:13:40;30.75;;;21.42;;
41653;SDS011;68687;52.030;7.110;2023-06-22T06:16:06;29.17;;;21.27;;
41653;SDS011;68687;52.030;7.110;2023-06-22T06:18:34;25.33;;;20.05;;
41653;SDS011;68687;52.030;7.110;2023-06-22T06:21:02;26.52;;;20.75;;
41653;SDS011;68687;52.030;7.110;2023-06-22T06:23:31;29.15;;;22.77;;
41653;SDS011;68687;52.030;7.110;2023-06-22T06:25:56;24.52;;;20.30;;
41653;SDS011;68687;52.030;7.110;2023-06-22T06:28:28;28.90;;;20.83;;
41653;SDS011;68687;52.030;7.110;2023-06-22T06:30:53;28.80;;;22.40;;
41653;SDS011;68687;52.030;7.110;2023-06-22T06:33:19;28.48;;;20.92;;
41653;SDS011;68687;52.030;7.110;2023-06-22T06:35:45;33.05;;;22.27;;
41653;SDS011;68687;52.030;7.110;2023-06-22T06:38:14;26.60;;;21.08;;
41653;SDS011;68687;52.030;7.110;2023-06-22T06:40:39;28.33;;;21.55;;
41653;SDS011;68687;52.030;7.110;2023-06-22T06:43:04;25.40;;;21.43;;
41653;SDS011;68687;52.030;7.110;2023-06-22T06:45:30;28.05;;;21.90;;
41653;SDS011;68687;52.030;7.110;2023-06-22T06:47:58;27.50;;;20.85;;
41653;SDS011;68687;52.030;7.110;2023-06-22T06:50:23;27.25;;;20.25;;
41653;SDS011;68687;52.030;7.110;2023-06-22T06:52:48;29.77;;;22.23;;
41653;SDS011;68687;52.030;7.110;2023-06-22T06:55:21;24.48;;;20.60;;
41653;SDS011;68687;52.030;7.110;2023-06-22T06:57:49;24.83;;;19.80;;
41653;SDS011;68687;52.030;7.110;2023-06-22T07:00:14;30.17;;;20.40;;
41653;SDS011;68687;52.030;7.110;2023-06-22T07:02:41;23.58;;;20.45;;
41653;SDS011;68687;52.030;7.110;2023-06-22T07:05:11;27.52;;;21.38;;
41653;SDS011;68687;52.030;7.110;2023-06-22T07:07:37;29.02;;;21.20;;
41653;SDS011;68687;52.030;7.110;2023-06-22T07:10:03;26.38;;;19.83;;
41653;SDS011;68687;52.030;7.110;2023-06-22T07:12:30;24.85;;;20.40;;
41653;SDS011;68687;52.030;7.110;2023-06-22T07:15:00;28.00;;;20.23;;
41653;SDS011;68687;52.030;7.110;2023-06-22T07:17:46;26.88;;;19.83;;
41653;SDS011;68687;52.030;7.110;2023-06-22T07:20:15;25.23;;;19.90;;
41653;SDS011;68687;52.030;7.110;2023-06-22T07:22:41;26.08;;;19.30;;
41653;SDS011;68687;52.030;7.110;2023-06-22T07:25:09;25.00;;;20.00;;
41653;SDS011;68687;52.030;7.110;2023-06-22T07:27:45;30.30;;;20.00;;
41653;SDS011;68687;52.030;7.110;2023-06-22T07:30:21;26.00;;;19.70;;
41653;SDS011;68687;52.030;7.110;2023-06-22T07:32:49;25.13;;;20.38;;
41653;SDS011;68687;52.030;7.110;2023-06-22T07:35:17;24.95;;;17.65;;
41653;SDS011;68687;52.030;7.110;2023-06-22T07:37:42;22.38;;;17.40;;
41653;SDS011;68687;52.030;7.110;2023-06-22T07:40:08;22.25;;;18.38;;
41653;SDS011;68687;52.030;7.110;2023-06-22T07:42:34;23.45;;;19.42;;
41653;SDS011;68687;52.030;7.110;2023-06-22T07:45:03;22.80;;;18.88;;
41653;SDS011;68687;52.030;7.110;2023-06-22T07:47:29;25.35;;;20.02;;
41653;SDS011;68687;52.030;7.110;2023-06-22T07:50:00;22.45;;;19.17;;
41653;SDS011;68687;52.030;7.110;2023-06-22T07:52:27;23.98;;;17.92;;
41653;SDS011;68687;52.030;7.110;2023-06-22T07:54:53;23.83;;;20.35;;
41653;SDS011;68687;52.030;7.110;2023-06-22T07:57:19;22.27;;;17.67;;
41653;SDS011;68687;52.030;7.110;2023-06-22T07:59:44;25.63;;;20.83;;
41653;SDS011;68687;52.030;7.110;2023-06-22T08:02:10;25.40;;;18.95;;
41653;SDS011;68687;52.030;7.110;2023-06-22T08:04:39;24.17;;;19.35;;
41653;SDS011;68687;52.030;7.110;2023-06-22T08:07:05;28.10;;;20.00;;
41653;SDS011;68687;52.030;7.110;2023-06-22T08:09:31;22.48;;;20.08;;
41653;SDS011;68687;52.030;7.110;2023-06-22T08:11:58;27.33;;;20.35;;
41653;SDS011;68687;52.030;7.110;2023-06-22T08:14:25;25.40;;;19.67;;
41653;SDS011;68687;52.030;7.110;2023-06-22T08:16:54;23.23;;;18.65;;
41653;SDS011;68687;52.030;7.110;2023-06-22T08:19:22;28.13;;;18.77;;
41653;SDS011;68687;52.030;7.110;2023-06-22T08:21:47;24.48;;;19.25;;
41653;SDS011;68687;52.030;7.110;2023-06-22T08:24:12;23.42;;;18.25;;
41653;SDS011;68687;52.030;7.110;2023-06-22T08:26:38;23.23;;;19.42;;
41653;SDS011;68687;52.030;7.110;2023-06-22T08:29:03;22.33;;;18.13;;
41653;SDS011;68687;52.030;7.110;2023-06-22T08:31:30;28.55;;;20.42;;
41653;SDS011;68687;52.030;7.110;2023-06-22T08:33:55;28.85;;;20.67;;
41653;SDS011;68687;52.030;7.110;2023-06-22T08:36:23;26.92;;;19.52;;
41653;SDS011;68687;52.030;7.110;2023-06-22T08:38:48;27.35;;;18.70;;
41653;SDS011;68687;52.030;7.110;2023-06-22T08:41:16;25.10;;;20.50;;
41653;SDS011;68687;52.030;7.110;2023-06-22T08:43:42;24.63;;;19.25;;
41653;SDS011;68687;52.030;7.110;2023-06-22T08:46:18;23.90;;;19.10;;
41653;SDS011;68687;52.030;7.110;2023-06-22T08:48:47;24.65;;;20.13;;
41653;SDS011;68687;52.030;7.110;2023-06-22T08:51:12;23.58;;;19.65;;
41653;SDS011;68687;52.030;7.110;2023-06-22T08:53:41;25.55;;;18.48;;
41653;SDS011;68687;52.030;7.110;2023-06-22T08:56:16;26.17;;;19.52;;
41653;SDS011;68687;52.030;7.110;2023-06-22T08:58:42;24.38;;;19.52;;
41653;SDS011;68687;52.030;7.110;2023-06-22T09:01:14;26.23;;;20.30;;
41653;SDS011;68687;52.030;7.110;2023-06-22T09:03:40;23.75;;;20.35;;
41653;SDS011;68687;52.030;7.110;2023-06-22T09:06:08;22.13;;;19.77;;
41653;SDS011;68687;52.030;7.110;2023-06-22T09:08:34;24.92;;;19.98;;
41653;SDS011;68687;52.030;7.110;2023-06-22T09:11:01;25.92;;;20.10;;
41653;SDS011;68687;52.030;7.110;2023-06-22T09:13:27;25.15;;;18.63;;
41653;SDS011;68687;52.030;7.110;2023-06-22T09:15:58;26.92;;;20.10;;
41653;SDS011;68687;52.030;7.110;2023-06-22T09:18:23;26.00;;;19.35;;
41653;SDS011;68687;52.030;7.110;2023-06-22T09:20:48;24.95;;;19.98;;
41653;SDS011;68687;52.030;7.110;2023-06-22T09:23:20;25.02;;;20.50;;
41653;SDS011;68687;52.030;7.110;2023-06-22T09:25:45;25.80;;;19.75;;
41653;SDS011;68687;52.030;7.110;2023-06-22T09:28:12;23.45;;;19.73;;
41653;SDS011;68687;52.030;7.110;2023-06-22T09:30:38;26.45;;;20.42;;
41653;SDS011;68687;52.030;7.110;2023-06-22T09:33:06;25.25;;;19.48;;
41653;SDS011;68687;52.030;7.110;2023-06-22T09:35:31;26.50;;;20.77;;
41653;SDS011;68687;52.030;7.110;2023-06-22T09:37:57;25.07;;;19.57;;
41653;SDS011;68687;52.030;7.110;2023-06-22T09:40:22;24.33;;;20.75;;
41653;SDS011;68687;52.030;7.110;2023-06-22T09:42:47;23.92;;;20.23;;
41653;SDS011;68687;52.030;7.110;2023-06-22T09:45:19;27.53;;;21.70;;
41653;SDS011;68687;52.030;7.110;2023-06-22T09:47:44;24.73;;;20.73;;
41653;SDS011;68687;52.030;7.110;2023-06-22T09:50:09;28.23;;;21.37;;
41653;SDS011;68687;52.030;7.110;2023-06-22T09:52:38;26.17;;;20.08;;
41653;SDS011;68687;52.030;7.110;2023-06-22T09:55:03;24.95;;;21.30;;
41653;SDS011;68687;52.030;7.110;2023-06-22T09:57:29;26.17;;;21.67;;
41653;SDS011;68687;52.030;7.110;2023-06-22T09:59:55;28.48;;;22.27;;
41653;SDS011;68687;52.030;7.110;2023-06-22T10:02:27;28.13;;;22.15;;
41653;SDS011;68687;52.030;7.110;2023-06-22T10:04:52;26.88;;;22.20;;
41653;SDS011;68687;52.030;7.110;2023-06-22T10:07:17;28.17;;;22.53;;
41653;SDS011;68687;52.030;7.110;2023-06-22T10:09:42;32.90;;;22.67;;
41653;SDS011;68687;52.030;7.110;2023-06-22T10:12:10;27.10;;;21.42;;
41653;SDS011;68687;52.030;7.110;2023-06-22T10:14:36;25.27;;;21.83;;
41653;SDS011;68687;52.030;7.110;2023-06-22T10:17:01;28.52;;;23.23;;
41653;SDS011;68687;52.030;7.110;2023-06-22T10:19:30;30.83;;;23.77;;
41653;SDS011;68687;52.030;7.110;2023-06-22T10:21:55;28.17;;;20.20;;
41653;SDS011;68687;52.030;7.110;2023-06-22T10:24:23;26.02;;;22.20;;
41653;SDS011;68687;52.030;7.110;2023-06-22T10:26:49;27.25;;;22.20;;
41653;SDS011;68687;52.030;7.110;2023-06-22T10:29:14;25.27;;;21.63;;
41653;SDS011;68687;52.030;7.110;2023-06-22T10:31:42;25.70;;;22.03;;
41653;SDS011;68687;52.030;7.110;2023-06-22T10:34:07;33.42;;;22.30;;
41653;SDS011;68687;52.030;7.110;2023-06-22T10:36:33;28.20;;;21.33;;
41653;SDS011;68687;52.030;7.110;2023-06-22T10:38:58;24.70;;;20.37;;
41653;SDS011;68687;52.030;7.110;2023-06-22T10:41:24;26.15;;;22.00;;
41653;SDS011;68687;52.030;7.110;2023-06-22T10:43:49;26.73;;;21.35;;
41653;SDS011;68687;52.030;7.110;2023-06-22T10:46:18;26.30;;;21.03;;
41653;SDS011;68687;52.030;7.110;2023-06-22T10:48:43;27.40;;;21.48;;
41653;SDS011;68687;52.030;7.110;2023-06-22T10:51:08;25.00;;;21.23;;
41653;SDS011;68687;52.030;7.110;2023-06-22T10:53:33;29.40;;;22.55;;
41653;SDS011;68687;52.030;7.110;2023-06-22T10:55:59;24.40;;;20.47;;
41653;SDS011;68687;52.030;7.110;2023-06-22T10:58:24;29.93;;;21.57;;
41653;SDS011;68687;52.030;7.110;2023-06-22T11:00:50;30.50;;;22.88;;
41653;SDS011;68687;52.030;7.110;2023-06-22T11:03:18;29.40;;;21.45;;
41653;SDS011;68687;52.030;7.110;2023-06-22T11:05:43;31.00;;;22.33;;
41653;SDS011;68687;52.030;7.110;2023-06-22T11:08:09;30.15;;;21.75;;
41653;SDS011;68687;52.030;7.110;2023-06-22T11:10:37;29.27;;;23.55;;
41653;SDS011;68687;52.030;7.110;2023-06-22T11:13:02;30.70;;;22.40;;
41653;SDS011;68687;52.030;7.110;2023-06-22T11:15:29;25.95;;;22.52;;
41653;SDS011;68687;52.030;7.110;2023-06-22T11:17:54;31.65;;;22.45;;
41653;SDS011;68687;52.030;7.110;2023-06-22T11:20:19;28.73;;;23.23;;
41653;SDS011;68687;52.030;7.110;2023-06-22T11:22:45;28.67;;;23.67;;
41653;SDS011;68687;52.030;7.110;2023-06-22T11:25:10;30.73;;;22.80;;
41653;SDS011;68687;52.030;7.110;2023-06-22T11:27:37;30.38;;;22.83;;
41653;SDS011;68687;52.030;7.110;2023-06-22T11:30:08;25.48;;;21.92;;
41653;SDS011;68687;52.030;7.110;2023-06-22T11:32:34;27.80;;;22.00;;
41653;SDS011;68687;52.030;7.110;2023-06-22T11:35:02;24.92;;;20.67;;
41653;SDS011;68687;52.030;7.110;2023-06-22T11:37:28;29.38;;;21.38;;
41653;SDS011;68687;52.030;7.110;2023-06-22T11:39:53;30.87;;;22.13;;
41653;SDS011;68687;52.030;7.110;2023-06-22T11:42:20;29.92;;;22.15;;
41653;SDS011;68687;52.030;7.110;2023-06-22T11:44:46;26.60;;;21.75;;
41653;SDS011;68687;52.030;7.110;2023-06-22T11:47:11;28.98;;;22.15;;
41653;SDS011;68687;52.030;7.110;2023-06-22T11:49:40;28.40;;;23.33;;
41653;SDS011;68687;52.030;7.110;2023-06-22T11:52:06;26.85;;;22.85;;
41653;SDS011;68687;52.030;7.110;2023-06-22T11:54:44;30.75;;;23.25;;
41653;SDS011;68687;52.030;7.110;2023-06-22T11:57:12;36.38;;;25.08;;
41653;SDS011;68687;52.030;7.110;2023-06-22T11:59:37;29.40;;;22.95;;
41653;SDS011;68687;52.030;7.110;2023-06-22T12:02:03;26.80;;;22.42;;
41653;SDS011;68687;52.030;7.110;2023-06-22T12:04:33;28.92;;;22.63;;
41653;SDS011;68687;52.030;7.110;2023-06-22T12:06:58;29.10;;;22.40;;
41653;SDS011;68687;52.030;7.110;2023-06-22T12:09:24;30.73;;;23.35;;
41653;SDS011;68687;52.030;7.110;2023-06-22T12:11:49;28.20;;;23.40;;
41653;SDS011;68687;52.030;7.110;2023-06-22T12:14:18;31.27;;;23.88;;
41653;SDS011;68687;52.030;7.110;2023-06-22T12:16:43;29.25;;;23.67;;
41653;SDS011;68687;52.030;7.110;2023-06-22T12:19:09;29.67;;;23.45;;
41653;SDS011;68687;52.030;7.110;2023-06-22T12:21:37;32.53;;;24.17;;
41653;SDS011;68687;52.030;7.110;2023-06-22T12:24:07;31.67;;;25.05;;
41653;SDS011;68687;52.030;7.110;2023-06-22T12:26:44;31.98;;;24.67;;
41653;SDS011;68687;52.030;7.110;2023-06-22T12:29:09;34.13;;;25.55;;
41653;SDS011;68687;52.030;7.110;2023-06-22T12:31:38;31.10;;;24.02;;
41653;SDS011;68687;52.030;7.110;2023-06-22T12:34:04;28.65;;;22.80;;
41653;SDS011;68687;52.030;7.110;2023-06-22T12:36:29;31.20;;;24.13;;
41653;SDS011;68687;52.030;7.110;2023-06-22T12:38:55;30.40;;;23.13;;
41653;SDS011;68687;52.030;7.110;2023-06-22T12:41:20;32.28;;;23.90;;
41653;SDS011;68687;52.030;7.110;2023-06-22T12:43:46;32.92;;;24.48;;
41653;SDS011;68687;52.030;7.110;2023-06-22T12:46:11;30.80;;;24.00;;
41653;SDS011;68687;52.030;7.110;2023-06-22T12:48:39;30.38;;;24.30;;
41653;SDS011;68687;52.030;7.110;2023-06-22T12:51:09;29.92;;;24.60;;
41653;SDS011;68687;52.030;7.110;2023-06-22T12:53:41;32.97;;;24.60;;
41653;SDS011;68687;52.030;7.110;2023-06-22T12:56:06;29.08;;;24.40;;
41653;SDS011;68687;52.030;7.110;2023-06-22T12:58:34;35.40;;;25.55;;
41653;SDS011;68687;52.030;7.110;2023-06-22T13:00:59;33.08;;;24.70;;
41653;SDS011;68687;52.030;7.110;2023-06-22T13:03:25;34.08;;;25.88;;
41653;SDS011;68687;52.030;7.110;2023-06-22T13:05:54;34.83;;;25.92;;
41653;SDS011;68687;52.030;7.110;2023-06-22T13:08:26;35.80;;;27.65;;
41653;SDS011;68687;52.030;7.110;2023-06-22T13:10:51;40.30;;;28.42;;
41653;SDS011;68687;52.030;7.110;2023-06-22T13:13:16;40.10;;;28.07;;
41653;SDS011;68687;52.030;7.110;2023-06-22T13:15:48;44.28;;;28.27;;
41653;SDS011;68687;52.030;7.110;2023-06-22T13:18:16;39.40;;;30.73;;
41653;SDS011;68687;52.030;7.110;2023-06-22T13:20:41;38.38;;;29.08;;
41653;SDS011;68687;52.030;7.110;2023-06-22T13:23:09;41.33;;;29.08;;
41653;SDS011;68687;52.030;7.110;2023-06-22T13:25:38;40.05;;;29.98;;
41653;SDS011;68687;52.030;7.110;2023-06-22T13:28:04;43.28;;;30.98;;
41653;SDS011;68687;52.030;7.110;2023-06-22T13:30:32;38.45;;;30.65;;
41653;SDS011;68687;52.030;7.110;2023-06-22T13:32:57;38.72;;;30.77;;
41653;SDS011;68687;52.030;7.110;2023-06-22T13:35:23;45.60;;;31.65;;
41653;SDS011;68687;52.030;7.110;2023-06-22T13:37:51;42.30;;;33.67;;
41653;SDS011;68687;52.030;7.110;2023-06-22T13:40:22;44.38;;;32.63;;
41653;SDS011;68687;52.030;7.110;2023-06-22T13:42:47;43.08;;;32.63;;
41653;SDS011;68687;52.030;7.110;2023-06-22T13:45:13;43.85;;;32.65;;
41653;SDS011;68687;52.030;7.110;2023-06-22T13:47:39;40.15;;;29.95;;
41653;SDS011;68687;52.030;7.110;2023-06-22T13:50:10;38.35;;;30.75;;
41653;SDS011;68687;52.030;7.110;2023-06-22T13:52:37;41.35;;;31.13;;
41653;SDS011;68687;52.030;7.110;2023-06-22T13:55:03;45.97;;;31.73;;
41653;SDS011;68687;52.030;7.110;2023-06-22T13:57:29;40.33;;;30.95;;
41653;SDS011;68687;52.030;7.110;2023-06-22T13:59:55;40.13;;;29.13;;
41653;SDS011;68687;52.030;7.110;2023-06-22T14:02:20;38.45;;;29.15;;
41653;SDS011;68687;52.030;7.110;2023-06-22T14:04:48;35.40;;;28.75;;
41653;SDS011;68687;52.030;7.110;2023-06-22T14:07:14;36.03;;;28.42;;
41653;SDS011;68687;52.030;7.110;2023-06-22T14:09:39;36.35;;;28.42;;
41653;SDS011;68687;52.030;7.110;2023-06-22T14:12:05;34.42;;;26.85;;
41653;SDS011;68687;52.030;7.110;2023-06-22T14:14:32;36.15;;;27.50;;
41653;SDS011;68687;52.030;7.110;2023-06-22T14:16:58;35.60;;;27.95;;
41653;SDS011;68687;52.030;7.110;2023-06-22T14:19:23;39.25;;;28.35;;
41653;SDS011;68687;52.030;7.110;2023-06-22T14:21:52;32.45;;;26.05;;
41653;SDS011;68687;52.030;7.110;2023-06-22T14:24:23;33.45;;;27.10;;